HIDDEN DAM (HENSLEY) (HID)

Elevation: 561' · FRESNO R basin · Operator: US Army Corps of Engineers

Provisional data, subject to change.
Query executed Thursday at 20:48:35   clock

Select a sensor type for a plot of data.
Note: Reservoir Flows are daily averages.

Earlier

Date RES ELE    STORAGE    RES CHG    TOC STO    ABV TOC    OUTFLOW    INFLOW    PPT INC    TEMP MN    TEMP MX    WINDLEN    EVP PAN   
 FEET   AF   AF   AF   AF   CFS   CFS   INCHES   DEG F   DEG F   MILES   INCHES  
07/22/2014 449.51 5408 -9 90000 -84592 0 -1 0.00 20 36 134 0.35
07/23/2014 449.50 5405 -3 90000 -84595 0 2 0.00 18 33 166 0.35
07/24/2014 449.47 5396 -9 90000 -84604 0 -1 0.00 17 36 117 0.35
07/25/2014 449.44 5387 -9 90000 -84613 0 -1 0.00 21 39 115 0.37
07/26/2014 449.42 5381 -6 90000 -84619 0 1 0.00 23 41 141 0.41
07/27/2014 449.40 5375 -6 90000 -84625 0 1 0.00 24 41 131 0.39
07/28/2014 449.37 5366 -9 90000 -84634 0 -2 0.00 23 38 93 0.29
07/29/2014 449.35 5360 -6 90000 -84640 0 0 0.00 23 39 119 0.35
07/30/2014 449.33 5354 -6 90000 -84646 0 -0 0.00 25 40 99 0.30
07/31/2014 449.30 5346 -8 90000 -84654 0 -0 0.00 25 41 127 0.38
08/01/2014 449.28 5340 -6 90000 -84660 0 1 0.00 23 42 142 0.42
08/02/2014 449.25 5331 -9 90000 -84669 0 -1 0.00 23 41 129 0.38
08/03/2014 449.24 5328 -3 90000 -84672 0 1 0.00 24 33 87 0.20
08/04/2014 449.23 5325 -3 90000 -84675 0 0 0.00 23 31 104 0.19
08/05/2014 449.20 5316 -9 90000 -84684 0 -1 0.00 19 35 154 0.34
08/06/2014 449.19 5313 -3 90000 -84687 0 1 0.00 18 35 119 0.30
08/07/2014 449.18 5310 -3 90000 -84690 0 2 0.00 21 37 135 0.35
08/08/2014 449.16 5304 -6 90000 -84696 0 0 0.00 22 39 108 0.34
08/09/2014 449.14 5298 -6 90000 -84702 0 0 0.00 21 38 110 0.34
08/10/2014 449.13 5295 -3 90000 -84705 0 2 0.00 18 37 107 0.32
08/11/2014 449.11 5290 -5 90000 -84710 0 1 0.00 19 39 114 0.34
08/12/2014 449.08 5281 -9 90000 -84719 0 -1 0.00 23 38 115 0.34
08/13/2014 449.07 5278 -3 90000 -84722 0 2 0.00 19 35 132 0.33
08/14/2014 449.05 5272 11807 90000 -84728 0 0 0.00 19 36 104 0.31
08/15/2014 449.03 5266 -11819 90000 -84734 0 0 0.00 20 38 102 0.33
08/16/2014 449.01 5260 -6 90000 -84740 0 0 0.00 19 39 105 0.34
08/17/2014 448.99 5253 -11 90000 -84751 0 0 0.00 20 39 115 0.35
08/18/2014 448.91 5231 -9 90000 -84760 0 -8 0.00 20 37 111 0.33
08/19/2014 448.83 5209 -159 90000 -84919 0 -8 0.00 18 34 115 0.31
08/20/2014 448.39 5082 -6 90000 -84925 0 -61 0.00 18 33 109 0.28
08/21/2014 -- -- -- -- -- -- -- -- -- -- -- --

Later | Latest

Warning! This data is preliminary and subject to revision.

Download Data Now Download Data Now | Show HID Map | Plot HID Data | 1 Month HID Data | Real-Time HID Data | HID Info